Preview an experimental upcoming version of this site at Beta.AviationWeather.gov

Impacts METAR Board
IDs:

KLAX - Los Angeles Intl, CA, US

Updated at: 1500 UTC 21 Sep 2023
Potential Impact None Slight Moderate High
Time 21/03Z 21/04Z 21/05Z 21/06Z 21/07Z 21/08Z 21/09Z 21/10Z 21/11Z 21/12Z 21/13Z 21/14Z 21/15Z
Temp66 66 66 66 65 65 65 66 65 65 64 64 65
Dewpt61 61 61 60 60 60 60 61 61 60 60 61 61
Altim29.87 29.88 29.89 29.90 29.90 29.89 29.89 29.88 29.88 29.89 29.90 29.91 29.93
VIS9 10 9 10 10 10 10 10 10 10 10 9 10
CIG15 14 15 15 15 44 41 42 42 42 44 24 24
CoverBKNBKNBKNBKNBKNBKNBKNBKNBKNBKNBKNOVCOVC
FltCatMVFRMVFRMVFRMVFRMVFRVFRVFRVFRVFRVFRVFRMVFRMVFR
WX--------------------------
WDir2502402402402702401900140140140230220
WSpd8 7 6 5 4 3 5 0 4 3 5 4 5
WGst-- -- -- -- -- -- -- -- -- -- -- -- --
Raw hourly METARs
KLAX 210253Z 25008KT 9SM BKN015 19/16 A2987 RMK AO2 SLP113 T01890161 51006
KLAX 210353Z 24007KT 10SM BKN014 19/16 A2988 RMK AO2 SLP118 T01890161
KLAX 210453Z 24006KT 9SM BKN015 BKN022 BKN047 19/16 A2989 RMK AO2 SLP121 T01890161
KLAX 210553Z 24005KT 10SM BKN015 BKN022 BKN045 19/16 A2990 RMK AO2 SLP122 T01890156 10206 20189 51009
KLAX 210653Z 27004KT 10SM BKN015 BKN044 18/16 A2990 RMK AO2 SLP121 T01830156
KLAX 210753Z 24003KT 10SM SCT015 BKN044 18/16 A2989 RMK AO2 SLP119 T01830156 402280183
KLAX 210853Z 19005KT 10SM FEW014 SCT021 BKN041 18/16 A2989 RMK AO2 SLP120 T01830156 55001
KLAX 210953Z 00000KT 10SM FEW012 SCT020 BKN042 19/16 A2988 RMK AO2 SLP117 T01890161
KLAX 211053Z 14004KT 10SM FEW012 FEW020 BKN042 18/16 A2988 RMK AO2 SLP115 T01830161
KLAX 211153Z 14003KT 10SM FEW012 FEW020 BKN042 18/16 A2989 RMK AO2 SLP119 T01830156 10189 20183 55001
KLAX 211253Z 14005KT 10SM FEW010 FEW020 BKN044 18/16 A2990 RMK AO2 SLP122 T01780156
KLAX 211353Z 23004KT 9SM SCT010 BKN024 OVC044 18/16 A2991 RMK AO2 SLP127 T01780161
KLAX 211453Z 22005KT 10SM SCT010 BKN024 OVC044 18/16 A2993 RMK AO2 SLP132 T01830161 53012



Page loaded:  15:52 UTC  |   08:52 AM Pacific  |   09:52 AM Mountain  |   10:52 AM Central  |   11:52 AM Eastern

 

ADVISORIES

FORECASTS

FORECASTS

OBSERVATIONS

USER TOOLS

ABOUT US